»·PEaware :: AAL1514 KELP-KSAN

AAL1514 :: KELP-KSAN

FLIGHT INFORMATION

Flight Status: Arrived
Operator:
American Airlines
More flights by this operator :: More flights under this callsign
Pilot: Daniel E. (20059)
Aircraft: AIRBUS A320
(A320)
More flights by this aircraft type
Origin: KELP El Paso Intl
United States
Destination: KSAN San Diego Intl-Lindbergh
United States
More flights between these airports :: More routes between these airports
Route: +ATKNN5 FLOGS SSO J50 GBN J2 HOGGZ LUCKI1
File this flight plan on PilotEdge
Remarks:
Altitude:
(Current/Filed)
34,000ft
Speed:
(Current/Filed)
450kts
Departed: 06-Oct-20 05:16 PM
Arrived: 06-Oct-20 06:42 PM
Distance/Time
Traveled:
552nm/1:25
Distance/Time
To Go:
Arrived

Flight Plot

Page will automatically refresh every two minutes.

Flight plan parsing failed; only flown route is shown


Map Options




Map Legend


Flown Route
Filed Route
Departure Airport
Arrival Airport
Navaid (VOR, NDB)
Fix

Horizontal Profiles

Position Reports

Time Latitude Longitude Heading Altitude Ground
Speed
06-Oct-20 16:44 31.800200 -106.392450 358 3931ft 0kts
06-Oct-20 16:45 31.800200 -106.392450 358 3931ft 0kts
06-Oct-20 16:46 31.800200 -106.392450 358 3931ft 0kts
06-Oct-20 16:47 31.800200 -106.392450 358 3931ft 0kts
06-Oct-20 16:48 31.800200 -106.392450 358 3931ft 0kts
06-Oct-20 16:49 31.800200 -106.392450 358 3931ft 0kts
06-Oct-20 16:50 31.800200 -106.392450 358 3931ft 0kts
06-Oct-20 16:51 31.800200 -106.392450 358 3931ft 0kts
06-Oct-20 16:52 31.800200 -106.392450 358 3931ft 0kts
06-Oct-20 16:53 31.800200 -106.392450 358 3931ft 0kts
06-Oct-20 16:54 31.800200 -106.392450 358 3931ft 0kts
06-Oct-20 16:55 31.800200 -106.392450 358 3931ft 0kts
06-Oct-20 16:56 31.800200 -106.392450 358 3931ft 0kts
06-Oct-20 16:57 31.800200 -106.392450 358 3931ft 0kts
06-Oct-20 16:58 31.800200 -106.392450 358 3931ft 0kts
06-Oct-20 16:59 31.800200 -106.392450 358 3931ft 0kts
06-Oct-20 17:00 31.800200 -106.392450 358 3931ft 0kts
06-Oct-20 17:01 31.800200 -106.392450 358 3931ft 0kts
06-Oct-20 17:02 31.800200 -106.392450 358 3931ft 0kts
06-Oct-20 17:03 31.800185 -106.392450 358 3931ft 2kts
06-Oct-20 17:04 31.799600 -106.392434 358 3932ft 0kts
06-Oct-20 17:05 31.799600 -106.392434 358 3932ft 0kts
06-Oct-20 17:06 31.799600 -106.392434 358 3932ft 0kts
06-Oct-20 17:07 31.799729 -106.392373 36 3932ft 3kts
06-Oct-20 17:08 31.801071 -106.391946 100 3932ft 0kts
06-Oct-20 17:09 31.799909 -106.388842 89 3936ft 16kts
06-Oct-20 17:10 31.799912 -106.383802 89 3942ft 13kts
06-Oct-20 17:11 31.799830 -106.377095 93 3949ft 26kts
06-Oct-20 17:12 31.799479 -106.369892 92 3960ft 16kts
06-Oct-20 17:13 31.799143 -106.363009 93 3966ft 19kts
06-Oct-20 17:14 31.799658 -106.359856 3 3970ft 11kts
06-Oct-20 17:15 31.801392 -106.375645 273 3955ft 164kts
06-Oct-20 17:16 31.790827 -106.439896 248 6795ft 233kts
06-Oct-20 17:17 31.784554 -106.518367 287 9083ft 255kts
06-Oct-20 17:18 31.805016 -106.598528 288 12520ft 253kts
06-Oct-20 17:19 31.825462 -106.689922 284 14278ft 331kts
06-Oct-20 17:20 31.847013 -106.800767 282 16190ft 352kts
06-Oct-20 17:21 31.868125 -106.916662 282 18202ft 379kts
06-Oct-20 17:22 31.890788 -107.042022 282 20204ft 398kts
06-Oct-20 17:23 31.914056 -107.171617 282 22214ft 409kts
06-Oct-20 17:24 31.937685 -107.304051 282 24213ft 418kts
06-Oct-20 17:25 31.961577 -107.438823 283 26214ft 422kts
06-Oct-20 17:26 31.985386 -107.573971 284 28214ft 421kts
06-Oct-20 17:27 32.008862 -107.708117 284 30212ft 414kts
06-Oct-20 17:28 32.032107 -107.841629 284 32196ft 417kts
06-Oct-20 17:29 32.055418 -107.976416 284 33839ft 424kts
06-Oct-20 17:30 32.079871 -108.118512 283 34104ft 461kts
06-Oct-20 17:31 32.105072 -108.266812 283 34108ft 455kts
06-Oct-20 17:32 32.129824 -108.413352 283 34108ft 457kts
06-Oct-20 17:33 32.154436 -108.560026 283 34110ft 457kts
06-Oct-20 17:34 32.178979 -108.707360 283 34106ft 456kts
06-Oct-20 17:35 32.203331 -108.854629 282 34107ft 457kts
06-Oct-20 17:36 32.227448 -109.001612 282 34106ft 457kts
06-Oct-20 17:37 32.251459 -109.149459 282 34103ft 458kts
06-Oct-20 17:38 32.278954 -109.295329 287 34101ft 456kts
06-Oct-20 17:39 32.313819 -109.439733 287 34100ft 456kts
06-Oct-20 17:40 32.348554 -109.583585 287 34099ft 457kts
06-Oct-20 17:41 32.383208 -109.727972 286 34096ft 456kts
06-Oct-20 17:42 32.417783 -109.872747 286 34096ft 457kts
06-Oct-20 17:43 32.452198 -110.017507 286 34093ft 457kts
06-Oct-20 17:44 32.486566 -110.162735 286 34088ft 457kts
06-Oct-20 17:45 32.520618 -110.307314 286 34086ft 458kts
06-Oct-20 17:46 32.554634 -110.452452 286 34077ft 457kts
06-Oct-20 17:47 32.588495 -110.597657 285 34064ft 456kts
06-Oct-20 17:48 32.622078 -110.742437 285 34056ft 456kts
06-Oct-20 17:49 32.655460 -110.887128 285 34043ft 454kts
06-Oct-20 17:50 32.688596 -111.031544 285 34028ft 454kts
06-Oct-20 17:51 32.721521 -111.175770 285 34016ft 452kts
06-Oct-20 17:52 32.754236 -111.319881 285 34005ft 452kts
06-Oct-20 17:53 32.786664 -111.463576 285 33995ft 451kts
06-Oct-20 17:54 32.818959 -111.607574 285 33989ft 451kts
06-Oct-20 17:55 32.850980 -111.751226 285 33982ft 449kts
06-Oct-20 17:56 32.881008 -111.894923 280 33977ft 449kts
06-Oct-20 17:57 32.896808 -112.042116 277 33973ft 449kts
06-Oct-20 17:58 32.910884 -112.188778 277 33970ft 447kts
06-Oct-20 17:59 32.924758 -112.335028 277 33980ft 444kts
06-Oct-20 18:00 32.938425 -112.481366 277 33973ft 444kts
06-Oct-20 18:01 32.951778 -112.627190 275 33967ft 444kts
06-Oct-20 18:02 32.940305 -112.772930 263 33963ft 446kts
06-Oct-20 18:03 32.922352 -112.919249 263 33952ft 446kts
06-Oct-20 18:04 32.904403 -113.065415 263 33948ft 447kts
06-Oct-20 18:05 32.886409 -113.210570 263 33945ft 446kts
06-Oct-20 18:06 32.868089 -113.356282 263 33941ft 444kts
06-Oct-20 18:07 32.849570 -113.501399 263 33937ft 445kts
06-Oct-20 18:08 32.830727 -113.646943 263 33936ft 445kts
06-Oct-20 18:10 32.811745 -113.791681 262 33935ft 445kts
06-Oct-20 18:11 32.792498 -113.936792 262 33936ft 446kts
06-Oct-20 18:12 32.778625 -114.082467 271 33938ft 443kts
06-Oct-20 18:13 32.782537 -114.228675 273 33944ft 444kts
06-Oct-20 18:14 32.790855 -114.374327 283 33943ft 442kts
06-Oct-20 18:15 32.825569 -114.513941 288 33708ft 442kts
06-Oct-20 18:16 32.861747 -114.650827 287 32422ft 438kts
06-Oct-20 18:17 32.875077 -114.794222 270 30914ft 443kts
06-Oct-20 18:18 32.873018 -114.941562 269 29419ft 448kts
06-Oct-20 18:19 32.870612 -115.090254 268 27923ft 443kts
06-Oct-20 18:20 32.867525 -115.231587 268 26149ft 431kts
06-Oct-20 18:21 32.858886 -115.374327 261 24438ft 436kts
06-Oct-20 18:22 32.839989 -115.508469 259 23234ft 401kts
06-Oct-20 18:23 32.818813 -115.639007 258 22181ft 402kts
06-Oct-20 18:24 32.798125 -115.766972 259 20889ft 393kts
06-Oct-20 18:24 32.784872 -115.873165 263 19579ft 383kts
06-Oct-20 18:26 32.773399 -116.012277 264 17633ft 352kts
06-Oct-20 18:27 32.764602 -116.124870 263 15667ft 332kts
06-Oct-20 18:27 32.757585 -116.215010 263 14005ft 326kts
06-Oct-20 18:29 32.747939 -116.339412 263 12143ft 317kts
06-Oct-20 18:29 32.741514 -116.421798 263 10814ft 291kts
06-Oct-20 18:30 32.733656 -116.515072 262 9709ft 276kts
06-Oct-20 18:32 32.723739 -116.620067 263 8516ft 270kts
06-Oct-20 18:33 32.716417 -116.705429 265 7405ft 257kts
06-Oct-20 18:33 32.710972 -116.774330 265 6384ft 241kts
06-Oct-20 18:34 32.697175 -116.848899 252 5490ft 219kts
06-Oct-20 18:35 32.678177 -116.913387 251 4290ft 198kts
06-Oct-20 18:36 32.681806 -116.976228 283 3936ft 197kts
06-Oct-20 18:37 32.696070 -117.036871 286 2941ft 180kts
06-Oct-20 18:38 32.709085 -117.090231 286 1580ft 158kts
06-Oct-20 18:39 32.721293 -117.140074 286 804ft 151kts
06-Oct-20 18:40 32.733023 -117.187289 285 23ft 131kts
06-Oct-20 18:41 32.736311 -117.201750 246 25ft 12kts
06-Oct-20 18:42 32.734639 -117.202431 194 24ft 6kts
06-Oct-20 18:43 32.733354 -117.203058 246 23ft 3kts
06-Oct-20 18:44 32.733343 -117.203347 270 24ft 0kts
06-Oct-20 18:45 32.733343 -117.203347 270 24ft 0kts
06-Oct-20 18:46 32.733343 -117.203347 270 24ft 0kts

Navigation Log

Ident Type
Flight plan parsing failed, navigation log unavailable